Terminal Aerodrome Forecast
Issued by NWS Pendleton, OR

Home | Current Version | Previous Version | Text Only | Print | Product List | Glossary On
Versions: 1 2 3 4 5 6 7 8 9 10 11 12 13
000
FTUS46 KPDT 301100
TAFPDT
TAF
KPDT 301120Z 3012/0112 26015G25KT P6SM SCT050 BKN070
     FM301500 26020G30KT P6SM BKN060
     FM302200 28015G25KT P6SM BKN070
     FM010300 25014KT P6SM SCT070=

USA.gov is the U.S. government's official web portal to all federal, state and local government web resources and services.